createdAt,value
2023-02-14T05:00:27.576Z,0.00
2023-02-14T05:01:27.393Z,0.00
2023-02-14T05:02:27.445Z,0.00
2023-02-14T05:03:27.403Z,0.00
2023-02-14T05:04:27.358Z,0.00
2023-02-14T05:05:27.365Z,0.00
2023-02-14T05:06:27.406Z,0.00
2023-02-14T05:07:27.327Z,0.00
2023-02-14T05:08:27.330Z,0.00
2023-02-14T05:09:27.305Z,0.00
2023-02-14T05:10:27.301Z,0.00
2023-02-14T05:11:32.303Z,0.00
2023-02-14T05:12:27.286Z,0.00
2023-02-14T05:13:27.294Z,0.00
2023-02-14T05:14:27.252Z,0.00
2023-02-14T05:15:27.237Z,0.00
2023-02-14T05:16:27.396Z,0.00
2023-02-14T05:17:27.215Z,0.00
2023-02-14T05:18:27.323Z,0.00
2023-02-14T05:19:27.206Z,0.00
2023-02-14T05:20:27.194Z,0.00
2023-02-14T05:21:27.177Z,0.00
2023-02-14T05:22:32.208Z,0.00
2023-02-14T05:23:27.147Z,0.00
2023-02-14T05:24:27.144Z,0.00
2023-02-14T05:25:27.127Z,0.00
2023-02-14T05:26:27.115Z,0.00
2023-02-14T05:27:27.109Z,0.00
2023-02-14T05:28:27.091Z,0.00
2023-02-14T05:29:27.130Z,0.00
2023-02-14T05:30:27.193Z,0.00
2023-02-14T05:31:27.257Z,0.00
2023-02-14T05:32:27.072Z,0.00
2023-02-14T05:33:32.069Z,0.00
2023-02-14T05:34:27.046Z,0.00
2023-02-14T05:35:27.018Z,0.00
2023-02-14T05:36:27.002Z,0.00
2023-02-14T05:37:26.992Z,0.00
2023-02-14T05:38:26.983Z,0.00
2023-02-14T05:39:26.997Z,0.00
2023-02-14T05:40:26.961Z,0.00
2023-02-14T05:41:26.952Z,0.00
2023-02-14T05:42:27.237Z,0.00
2023-02-14T05:43:26.933Z,0.00
2023-02-14T05:44:32.021Z,0.00
2023-02-14T05:45:26.951Z,0.00
2023-02-14T05:46:26.899Z,0.00
2023-02-14T05:47:26.887Z,0.00
2023-02-14T05:48:26.898Z,0.00
2023-02-14T05:49:26.873Z,0.00
2023-02-14T05:50:26.856Z,0.00
2023-02-14T05:51:26.868Z,0.00
2023-02-14T05:52:26.830Z,0.00
2023-02-14T05:53:26.869Z,0.00
2023-02-14T05:54:26.819Z,0.00
2023-02-14T05:55:31.823Z,0.00
2023-02-14T05:56:26.785Z,0.00
2023-02-14T05:57:26.795Z,0.00
2023-02-14T05:58:26.760Z,0.00
2023-02-14T05:59:26.768Z,0.00
2023-02-14T06:00:26.749Z,0.00
2023-02-14T06:01:26.731Z,0.00
2023-02-14T06:02:26.797Z,0.00
2023-02-14T06:03:26.737Z,0.00
2023-02-14T06:04:26.809Z,0.00
2023-02-14T06:05:26.697Z,0.00
2023-02-14T06:06:31.704Z,0.00
2023-02-14T06:07:26.674Z,0.00
2023-02-14T06:08:26.713Z,0.00
2023-02-14T06:09:26.663Z,0.00
2023-02-14T06:10:26.640Z,0.00
2023-02-14T06:11:26.653Z,0.00
2023-02-14T06:12:26.615Z,0.00
2023-02-14T06:13:26.631Z,0.00
2023-02-14T06:14:26.603Z,0.00
2023-02-14T06:15:26.587Z,0.00
2023-02-14T06:16:26.594Z,0.00
2023-02-14T06:17:31.580Z,0.00
2023-02-14T06:18:26.548Z,0.00
2023-02-14T06:19:26.550Z,0.00
2023-02-14T06:20:26.548Z,0.00
2023-02-14T06:21:26.513Z,0.00
2023-02-14T06:22:26.513Z,0.00
2023-02-14T06:23:26.540Z,0.00
2023-02-14T06:24:26.497Z,0.00
2023-02-14T06:25:26.498Z,0.00
2023-02-14T06:26:26.468Z,0.00
2023-02-14T06:27:26.450Z,0.00
2023-02-14T06:28:31.490Z,0.00
2023-02-14T06:29:26.439Z,0.00
2023-02-14T06:30:26.621Z,0.00
2023-02-14T06:31:26.581Z,0.00
2023-02-14T06:32:26.394Z,0.00
2023-02-14T06:33:26.385Z,0.00
2023-02-14T06:34:26.395Z,0.00
2023-02-14T06:35:26.369Z,0.00
2023-02-14T06:36:26.487Z,0.00
2023-02-14T06:37:26.340Z,0.00
2023-02-14T06:38:26.336Z,0.00
2023-02-14T06:39:31.353Z,0.00
2023-02-14T06:40:26.319Z,0.00
2023-02-14T06:41:26.324Z,5.62
2023-02-14T06:42:26.284Z,5.62
2023-02-14T06:43:26.271Z,5.62
2023-02-14T06:44:26.282Z,5.62
2023-02-14T06:45:26.287Z,5.62
2023-02-14T06:46:26.324Z,5.62
2023-02-14T06:47:26.225Z,5.62
2023-02-14T06:48:26.222Z,5.62
2023-02-14T06:49:26.209Z,5.62
2023-02-14T06:50:31.224Z,5.62
2023-02-14T06:51:26.180Z,5.62
2023-02-14T06:52:26.195Z,5.62
2023-02-14T06:53:26.162Z,5.62
2023-02-14T06:54:26.160Z,11.25
2023-02-14T06:55:26.148Z,11.25
2023-02-14T06:56:26.125Z,11.25
2023-02-14T06:57:26.121Z,11.25
2023-02-14T06:58:26.111Z,11.25
2023-02-14T06:59:26.097Z,11.25
2023-02-14T07:00:26.110Z,11.25
2023-02-14T07:01:31.147Z,11.25
2023-02-14T07:02:26.101Z,11.25
2023-02-14T07:03:26.049Z,11.25
2023-02-14T07:04:26.039Z,16.88
2023-02-14T07:05:26.041Z,16.88
2023-02-14T07:06:26.011Z,16.88
2023-02-14T07:07:26.005Z,16.88
2023-02-14T07:08:26.434Z,16.88
2023-02-14T07:09:25.985Z,22.50
2023-02-14T07:10:25.986Z,22.50
2023-02-14T07:11:25.967Z,22.50
2023-02-14T07:12:30.970Z,22.50
2023-02-14T07:13:26.335Z,22.50
2023-02-14T07:14:25.936Z,22.50
2023-02-14T07:15:26.185Z,22.50
2023-02-14T07:16:25.932Z,22.50
2023-02-14T07:17:25.934Z,22.50
2023-02-14T07:18:25.883Z,22.50
2023-02-14T07:19:25.871Z,28.12
2023-02-14T07:20:25.875Z,28.12
2023-02-14T07:21:25.852Z,28.12
2023-02-14T07:22:25.835Z,28.12
2023-02-14T07:23:30.862Z,28.12
2023-02-14T07:24:25.813Z,28.12
2023-02-14T07:25:25.826Z,28.12
2023-02-14T07:26:25.817Z,28.12
2023-02-14T07:27:25.791Z,33.75
2023-02-14T07:28:25.767Z,33.75
2023-02-14T07:29:25.756Z,33.75
2023-02-14T07:30:25.803Z,33.75
2023-02-14T07:31:25.889Z,33.75
2023-02-14T07:32:25.879Z,33.75
2023-02-14T07:33:25.716Z,28.12
2023-02-14T07:34:30.736Z,28.12
2023-02-14T07:35:25.716Z,33.75
2023-02-14T07:36:25.711Z,33.75
2023-02-14T07:37:25.680Z,33.75
2023-02-14T07:38:25.675Z,39.38
2023-02-14T07:39:25.663Z,39.38
2023-02-14T07:40:25.643Z,39.38
2023-02-14T07:41:25.619Z,39.38
2023-02-14T07:42:25.606Z,39.38
2023-02-14T07:43:25.624Z,39.38
2023-02-14T07:44:25.585Z,39.38
2023-02-14T07:45:30.616Z,45.00
2023-02-14T07:46:25.679Z,45.00
2023-02-14T07:47:25.550Z,45.00
2023-02-14T07:48:25.541Z,45.00
2023-02-14T07:49:25.534Z,45.00
2023-02-14T07:50:25.518Z,45.00
2023-02-14T07:51:25.543Z,50.62
2023-02-14T07:52:25.523Z,50.62
2023-02-14T07:53:25.492Z,56.25
2023-02-14T07:54:25.489Z,61.88
2023-02-14T07:55:25.489Z,67.50
2023-02-14T07:56:30.488Z,67.50
2023-02-14T07:57:25.439Z,73.12
2023-02-14T07:58:25.429Z,73.12
2023-02-14T07:59:26.151Z,73.12
2023-02-14T08:00:25.407Z,78.75
2023-02-14T08:01:25.452Z,78.75
2023-02-14T08:02:25.382Z,78.75
2023-02-14T08:03:25.372Z,78.75
2023-02-14T08:04:25.409Z,78.75
2023-02-14T08:05:25.508Z,84.38
2023-02-14T08:06:25.352Z,84.38
2023-02-14T08:07:30.358Z,84.38
2023-02-14T08:08:25.404Z,84.38
2023-02-14T08:09:25.305Z,84.38
2023-02-14T08:10:25.291Z,84.38
2023-02-14T08:11:25.326Z,90.00
2023-02-14T08:12:25.300Z,90.00
2023-02-14T08:13:25.259Z,90.00
2023-02-14T08:14:25.244Z,84.38
2023-02-14T08:15:25.251Z,84.38
2023-02-14T08:16:25.293Z,84.38
2023-02-14T08:17:25.213Z,84.38
2023-02-14T08:18:30.228Z,90.00
2023-02-14T08:19:25.190Z,90.00
2023-02-14T08:20:25.196Z,84.38
2023-02-14T08:21:25.185Z,84.38
2023-02-14T08:22:25.158Z,90.00
2023-02-14T08:23:25.180Z,95.62
2023-02-14T08:24:25.140Z,95.62
2023-02-14T08:25:25.127Z,101.25
2023-02-14T08:26:25.117Z,101.25
2023-02-14T08:27:25.122Z,101.25
2023-02-14T08:28:25.109Z,95.62
2023-02-14T08:29:30.124Z,95.62
2023-02-14T08:30:25.101Z,95.62
2023-02-14T08:31:34.275Z,90.00
2023-02-14T08:32:26.320Z,90.00
2023-02-14T08:33:25.024Z,95.62
2023-02-14T08:34:25.032Z,95.62
2023-02-14T08:35:26.081Z,95.62
2023-02-14T08:36:24.988Z,90.00
2023-02-14T08:37:25.079Z,95.62
2023-02-14T08:38:24.965Z,95.62
2023-02-14T08:39:24.976Z,95.62
2023-02-14T08:40:29.963Z,90.00
2023-02-14T08:41:24.937Z,90.00
2023-02-14T08:42:24.934Z,90.00
2023-02-14T08:43:24.937Z,95.62
2023-02-14T08:44:24.916Z,101.25
2023-02-14T08:45:24.893Z,90.00
2023-02-14T08:46:25.001Z,90.00
2023-02-14T08:47:24.898Z,90.00
2023-02-14T08:48:24.855Z,84.38
2023-02-14T08:49:24.844Z,95.62
2023-02-14T08:50:24.859Z,95.62
2023-02-14T08:51:29.869Z,95.62
2023-02-14T08:52:24.832Z,95.62
2023-02-14T08:53:24.804Z,90.00
2023-02-14T08:54:24.793Z,90.00
2023-02-14T08:55:24.780Z,84.38
2023-02-14T08:56:24.859Z,95.62
2023-02-14T08:57:24.773Z,90.00
2023-02-14T08:58:24.761Z,90.00
2023-02-14T08:59:24.762Z,95.62
2023-02-14T09:00:24.845Z,95.62
2023-02-14T09:01:24.839Z,95.62
2023-02-14T09:02:29.818Z,95.62
2023-02-14T09:03:24.830Z,90.00
2023-02-14T09:04:24.704Z,90.00
2023-02-14T09:05:24.664Z,90.00
2023-02-14T09:06:24.654Z,101.25
2023-02-14T09:07:24.758Z,101.25
2023-02-14T09:08:24.677Z,101.25
2023-02-14T09:09:24.620Z,95.62
2023-02-14T09:10:24.661Z,95.62
2023-02-14T09:11:24.600Z,95.62
2023-02-14T09:12:24.594Z,101.25
2023-02-14T09:13:29.590Z,101.25
2023-02-14T09:14:24.558Z,101.25
2023-02-14T09:15:24.700Z,101.25
2023-02-14T09:16:24.631Z,101.25
2023-02-14T09:17:24.541Z,106.88
2023-02-14T09:18:24.601Z,101.25
2023-02-14T09:19:24.569Z,101.25
2023-02-14T09:20:24.501Z,106.88
2023-02-14T09:21:24.608Z,112.50
2023-02-14T09:22:24.528Z,123.75
2023-02-14T09:23:24.483Z,129.38
2023-02-14T09:24:29.468Z,129.38
2023-02-14T09:25:24.444Z,140.62
2023-02-14T09:26:24.492Z,140.62
2023-02-14T09:27:24.458Z,146.25
2023-02-14T09:28:24.399Z,151.88
2023-02-14T09:29:24.389Z,157.50
2023-02-14T09:30:24.568Z,174.38
2023-02-14T09:31:24.700Z,174.38
2023-02-14T09:32:24.411Z,174.38
2023-02-14T09:33:24.436Z,191.25
2023-02-14T09:34:24.331Z,196.88
2023-02-14T09:35:29.352Z,213.75
2023-02-14T09:36:24.320Z,230.62
2023-02-14T09:37:24.299Z,219.38
2023-02-14T09:38:24.297Z,208.12
2023-02-14T09:39:24.285Z,191.25
2023-02-14T09:40:24.341Z,185.62
2023-02-14T09:41:24.252Z,196.88
2023-02-14T09:42:24.239Z,202.50
2023-02-14T09:43:24.241Z,219.38
2023-02-14T09:44:24.225Z,230.62
2023-02-14T09:45:24.211Z,241.88
2023-02-14T09:46:29.240Z,253.12
2023-02-14T09:47:24.185Z,247.50
2023-02-14T09:48:25.337Z,225.00
2023-02-14T09:49:24.374Z,196.88
2023-02-14T09:50:24.242Z,174.38
2023-02-14T09:51:24.194Z,185.62
2023-02-14T09:52:24.128Z,191.25
2023-02-14T09:53:24.131Z,191.25
2023-02-14T09:54:24.105Z,191.25
2023-02-14T09:55:24.107Z,185.62
2023-02-14T09:56:24.085Z,191.25
2023-02-14T09:57:29.139Z,202.50
2023-02-14T09:58:24.071Z,225.00
2023-02-14T09:59:24.056Z,225.00
2023-02-14T10:00:24.042Z,230.62
2023-02-14T10:01:24.068Z,225.00
2023-02-14T10:02:24.196Z,208.12
2023-02-14T10:03:24.025Z,202.50
2023-02-14T10:04:24.009Z,191.25
2023-02-14T10:05:24.064Z,191.25
2023-02-14T10:06:23.968Z,191.25
2023-02-14T10:07:23.956Z,202.50
2023-02-14T10:08:28.987Z,202.50
2023-02-14T10:09:23.935Z,202.50
2023-02-14T10:10:23.933Z,196.88
2023-02-14T10:11:23.917Z,196.88
2023-02-14T10:12:23.931Z,202.50
2023-02-14T10:13:23.902Z,208.12
2023-02-14T10:14:23.886Z,202.50
2023-02-14T10:15:23.865Z,196.88
2023-02-14T10:16:26.704Z,202.50
2023-02-14T10:17:23.848Z,208.12
2023-02-14T10:18:23.877Z,196.88
2023-02-14T10:19:28.848Z,196.88
2023-02-14T10:20:23.816Z,191.25
2023-02-14T10:21:23.804Z,196.88
2023-02-14T10:22:23.788Z,196.88
2023-02-14T10:23:23.788Z,191.25
2023-02-14T10:24:23.766Z,191.25
2023-02-14T10:25:23.752Z,196.88
2023-02-14T10:26:23.747Z,180.00
2023-02-14T10:27:23.751Z,174.38
2023-02-14T10:28:23.731Z,191.25
2023-02-14T10:29:23.753Z,208.12
2023-02-14T10:30:28.858Z,208.12
2023-02-14T10:31:23.821Z,196.88
2023-02-14T10:32:23.905Z,196.88
2023-02-14T10:33:23.689Z,185.62
2023-02-14T10:34:23.657Z,174.38
2023-02-14T10:35:23.646Z,174.38
2023-02-14T10:36:23.633Z,174.38
2023-02-14T10:37:23.618Z,180.00
2023-02-14T10:38:23.613Z,191.25
2023-02-14T10:39:23.612Z,191.25
2023-02-14T10:40:23.593Z,196.88
2023-02-14T10:41:28.595Z,191.25
2023-02-14T10:42:23.564Z,185.62
2023-02-14T10:43:23.578Z,191.25
2023-02-14T10:44:23.552Z,196.88
2023-02-14T10:45:23.530Z,196.88
2023-02-14T10:46:23.590Z,196.88
2023-02-14T10:47:23.527Z,196.88
2023-02-14T10:48:23.497Z,196.88
2023-02-14T10:49:23.544Z,191.25
2023-02-14T10:50:23.482Z,185.62
2023-02-14T10:51:23.481Z,185.62
2023-02-14T10:52:28.484Z,185.62
2023-02-14T10:53:23.439Z,185.62
2023-02-14T10:54:23.435Z,180.00
2023-02-14T10:55:32.005Z,168.75
2023-02-14T10:56:24.411Z,163.12
2023-02-14T10:57:23.397Z,168.75
2023-02-14T10:58:23.383Z,174.38
2023-02-14T10:59:23.413Z,180.00
2023-02-14T11:00:23.370Z,174.38
2023-02-14T11:01:23.452Z,168.75
2023-02-14T11:02:23.349Z,174.38
2023-02-14T11:03:28.423Z,185.62
2023-02-14T11:04:23.322Z,185.62
2023-02-14T11:05:23.338Z,180.00
2023-02-14T11:06:23.307Z,180.00
2023-02-14T11:07:23.291Z,185.62
2023-02-14T11:08:23.277Z,185.62
2023-02-14T11:09:23.275Z,191.25
2023-02-14T11:10:23.280Z,196.88
2023-02-14T11:11:23.262Z,196.88
2023-02-14T11:12:23.238Z,185.62
2023-02-14T11:13:23.232Z,185.62
2023-02-14T11:14:28.288Z,191.25
2023-02-14T11:15:23.220Z,196.88
2023-02-14T11:16:23.229Z,191.25
2023-02-14T11:17:23.184Z,191.25
2023-02-14T11:18:23.167Z,191.25
2023-02-14T11:19:23.146Z,196.88
2023-02-14T11:20:23.146Z,196.88
2023-02-14T11:21:23.126Z,196.88
2023-02-14T11:22:23.122Z,196.88
2023-02-14T11:23:23.130Z,196.88
2023-02-14T11:24:23.127Z,191.25
2023-02-14T11:25:28.119Z,185.62
2023-02-14T11:26:23.070Z,185.62
2023-02-14T11:27:23.096Z,196.88
2023-02-14T11:28:23.079Z,196.88
2023-02-14T11:29:23.050Z,196.88
2023-02-14T11:30:23.163Z,196.88
2023-02-14T11:31:23.093Z,202.50
2023-02-14T11:32:23.016Z,208.12
2023-02-14T11:33:22.995Z,208.12
2023-02-14T11:34:22.978Z,202.50
2023-02-14T11:35:22.968Z,202.50
2023-02-14T11:36:28.015Z,208.12
2023-02-14T11:37:22.943Z,208.12
2023-02-14T11:38:22.937Z,202.50
2023-02-14T11:39:22.923Z,202.50
2023-02-14T11:40:22.918Z,202.50
2023-02-14T11:41:24.476Z,196.88
2023-02-14T11:42:22.886Z,191.25
2023-02-14T11:43:22.877Z,185.62
2023-02-14T11:44:22.946Z,180.00
2023-02-14T11:45:22.855Z,185.62
2023-02-14T11:46:22.994Z,191.25
2023-02-14T11:47:27.887Z,191.25
2023-02-14T11:48:36.589Z,185.62
2023-02-14T11:49:23.808Z,185.62
2023-02-14T11:50:22.825Z,185.62
2023-02-14T11:51:22.831Z,185.62
2023-02-14T11:52:22.779Z,180.00
2023-02-14T11:53:22.819Z,180.00
2023-02-14T11:54:22.752Z,180.00
2023-02-14T11:55:22.742Z,185.62
2023-02-14T11:56:22.744Z,185.62
2023-02-14T11:57:22.734Z,191.25
2023-02-14T11:58:27.833Z,191.25
2023-02-14T11:59:22.828Z,191.25
2023-02-14T12:00:22.700Z,185.62
2023-02-14T12:01:22.698Z,191.25
2023-02-14T12:02:22.763Z,196.88
2023-02-14T12:03:22.741Z,196.88
2023-02-14T12:04:22.675Z,196.88
2023-02-14T12:05:22.653Z,196.88
2023-02-14T12:06:22.641Z,202.50
2023-02-14T12:07:22.609Z,202.50
2023-02-14T12:08:22.603Z,202.50
2023-02-14T12:09:27.676Z,202.50
2023-02-14T12:10:22.581Z,202.50
2023-02-14T12:11:22.574Z,202.50
2023-02-14T12:12:22.550Z,202.50
2023-02-14T12:13:22.602Z,202.50
2023-02-14T12:14:22.579Z,202.50
2023-02-14T12:15:22.580Z,202.50
2023-02-14T12:16:22.523Z,202.50
2023-02-14T12:17:22.501Z,202.50
2023-02-14T12:18:22.518Z,196.88
2023-02-14T12:19:22.494Z,196.88
2023-02-14T12:20:27.499Z,202.50
2023-02-14T12:21:22.459Z,196.88
2023-02-14T12:22:22.439Z,196.88
2023-02-14T12:23:22.431Z,196.88
2023-02-14T12:24:22.426Z,196.88
2023-02-14T12:25:22.408Z,196.88
2023-02-14T12:26:22.398Z,191.25
2023-02-14T12:27:22.394Z,196.88
2023-02-14T12:28:22.375Z,196.88
2023-02-14T12:29:22.360Z,202.50
2023-02-14T12:30:22.388Z,208.12
2023-02-14T12:31:27.505Z,219.38
2023-02-14T12:32:22.322Z,202.50
2023-02-14T12:33:22.333Z,202.50
2023-02-14T12:34:22.323Z,202.50
2023-02-14T12:35:22.286Z,208.12
2023-02-14T12:36:22.286Z,208.12
2023-02-14T12:37:22.291Z,196.88
2023-02-14T12:38:22.340Z,196.88
2023-02-14T12:39:22.243Z,196.88
2023-02-14T12:40:22.255Z,196.88
2023-02-14T12:41:22.232Z,196.88
2023-02-14T12:42:27.241Z,196.88
2023-02-14T12:43:22.208Z,196.88
2023-02-14T12:44:22.231Z,196.88
2023-02-14T12:45:22.174Z,196.88
2023-02-14T12:46:22.216Z,196.88
2023-02-14T12:47:22.160Z,196.88
2023-02-14T12:48:22.141Z,191.25
2023-02-14T12:49:22.128Z,185.62
2023-02-14T12:50:22.171Z,185.62
2023-02-14T12:51:22.115Z,191.25
2023-02-14T12:52:22.109Z,196.88
2023-02-14T12:53:27.110Z,196.88
2023-02-14T12:54:22.096Z,196.88
2023-02-14T12:55:22.062Z,202.50
2023-02-14T12:56:22.070Z,202.50
2023-02-14T12:57:22.065Z,202.50
2023-02-14T12:58:22.037Z,202.50
2023-02-14T12:59:22.019Z,202.50
2023-02-14T13:00:22.008Z,202.50
2023-02-14T13:01:29.092Z,202.50
2023-02-14T13:02:23.101Z,196.88
2023-02-14T13:03:21.972Z,202.50
2023-02-14T13:04:26.993Z,202.50
2023-02-14T13:05:21.952Z,196.88
2023-02-14T13:06:21.962Z,196.88
2023-02-14T13:07:21.929Z,196.88
2023-02-14T13:08:21.933Z,202.50
2023-02-14T13:09:21.927Z,208.12
2023-02-14T13:10:21.896Z,208.12
2023-02-14T13:11:21.893Z,213.75
2023-02-14T13:12:21.896Z,213.75
2023-02-14T13:13:21.875Z,213.75
2023-02-14T13:14:21.850Z,213.75
2023-02-14T13:15:27.309Z,208.12
2023-02-14T13:16:21.920Z,208.12
2023-02-14T13:17:21.817Z,202.50
2023-02-14T13:18:21.838Z,208.12
2023-02-14T13:19:21.795Z,208.12
2023-02-14T13:20:21.781Z,208.12
2023-02-14T13:21:21.775Z,202.50
2023-02-14T13:22:21.781Z,202.50
2023-02-14T13:23:21.764Z,191.25
2023-02-14T13:24:21.762Z,191.25
2023-02-14T13:25:21.754Z,191.25
2023-02-14T13:26:27.153Z,185.62
2023-02-14T13:27:22.288Z,180.00
2023-02-14T13:28:21.741Z,174.38
2023-02-14T13:29:21.678Z,174.38
2023-02-14T13:30:21.761Z,174.38
2023-02-14T13:31:21.802Z,174.38
2023-02-14T13:32:21.652Z,180.00
2023-02-14T13:33:21.664Z,180.00
2023-02-14T13:34:21.772Z,185.62
2023-02-14T13:35:21.656Z,180.00
2023-02-14T13:36:21.610Z,180.00
2023-02-14T13:37:27.251Z,185.62
2023-02-14T13:38:21.616Z,185.62
2023-02-14T13:39:21.569Z,180.00
2023-02-14T13:40:21.568Z,185.62
2023-02-14T13:41:21.543Z,185.62
2023-02-14T13:42:21.527Z,185.62
2023-02-14T13:43:21.529Z,185.62
2023-02-14T13:44:21.525Z,180.00
2023-02-14T13:45:21.539Z,180.00
2023-02-14T13:46:21.533Z,174.38
2023-02-14T13:47:21.498Z,174.38
2023-02-14T13:48:26.500Z,174.38
2023-02-14T13:49:21.453Z,168.75
2023-02-14T13:50:21.734Z,163.12
2023-02-14T13:51:21.437Z,157.50
2023-02-14T13:52:21.419Z,157.50
2023-02-14T13:53:21.473Z,157.50
2023-02-14T13:54:21.395Z,151.88
2023-02-14T13:55:21.387Z,151.88
2023-02-14T13:56:21.369Z,151.88
2023-02-14T13:57:21.365Z,151.88
2023-02-14T13:58:21.354Z,151.88
2023-02-14T13:59:26.902Z,151.88
2023-02-14T14:00:21.365Z,146.25
2023-02-14T14:01:21.319Z,146.25
2023-02-14T14:02:21.311Z,151.88
2023-02-14T14:03:21.298Z,151.88
2023-02-14T14:04:21.324Z,146.25
2023-02-14T14:05:21.272Z,140.62
2023-02-14T14:06:21.261Z,146.25
2023-02-14T14:07:21.490Z,151.88
2023-02-14T14:08:21.348Z,151.88
2023-02-14T14:09:21.274Z,163.12
2023-02-14T14:10:26.267Z,168.75
2023-02-14T14:11:21.211Z,163.12
2023-02-14T14:12:21.199Z,163.12
2023-02-14T14:13:21.182Z,163.12
2023-02-14T14:14:21.229Z,163.12
2023-02-14T14:15:21.163Z,151.88
2023-02-14T14:16:21.172Z,146.25
2023-02-14T14:17:21.141Z,140.62
2023-02-14T14:18:21.127Z,146.25
2023-02-14T14:19:21.123Z,146.25
2023-02-14T14:20:21.113Z,146.25
2023-02-14T14:21:26.114Z,151.88
2023-02-14T14:22:21.081Z,151.88
2023-02-14T14:23:21.104Z,146.25
2023-02-14T14:24:21.076Z,146.25
2023-02-14T14:25:21.065Z,151.88
2023-02-14T14:26:21.035Z,140.62
2023-02-14T14:27:21.021Z,129.38
2023-02-14T14:28:21.073Z,129.38
2023-02-14T14:29:21.024Z,129.38
2023-02-14T14:30:21.107Z,135.00
2023-02-14T14:31:21.176Z,129.38
2023-02-14T14:32:25.990Z,123.75
2023-02-14T14:33:20.953Z,129.38
2023-02-14T14:34:20.977Z,118.12
2023-02-14T14:35:20.954Z,118.12
2023-02-14T14:36:20.920Z,118.12
2023-02-14T14:37:20.912Z,118.12
2023-02-14T14:38:20.904Z,118.12
2023-02-14T14:39:20.918Z,118.12
2023-02-14T14:40:20.880Z,118.12
2023-02-14T14:41:20.909Z,118.12
2023-02-14T14:42:20.853Z,123.75
2023-02-14T14:43:25.865Z,129.38
2023-02-14T14:44:20.834Z,123.75
2023-02-14T14:45:20.833Z,123.75
2023-02-14T14:46:20.850Z,118.12
2023-02-14T14:47:20.806Z,118.12
2023-02-14T14:48:20.785Z,118.12
2023-02-14T14:49:20.789Z,112.50
2023-02-14T14:50:20.775Z,106.88
2023-02-14T14:51:20.758Z,106.88
2023-02-14T14:52:20.742Z,101.25
2023-02-14T14:53:20.740Z,101.25
2023-02-14T14:54:25.755Z,101.25
2023-02-14T14:55:20.718Z,101.25
2023-02-14T14:56:20.702Z,101.25
2023-02-14T14:57:20.713Z,101.25
2023-02-14T14:58:20.678Z,95.62
2023-02-14T14:59:20.668Z,95.62
2023-02-14T15:00:20.680Z,95.62
2023-02-14T15:01:20.704Z,95.62
2023-02-14T15:02:20.666Z,90.00
2023-02-14T15:03:20.666Z,90.00
2023-02-14T15:04:20.668Z,90.00
2023-02-14T15:05:25.632Z,90.00
2023-02-14T15:06:20.608Z,90.00
2023-02-14T15:07:20.585Z,90.00
2023-02-14T15:08:20.572Z,90.00
2023-02-14T15:09:23.092Z,90.00
2023-02-14T15:10:20.564Z,90.00
2023-02-14T15:11:20.533Z,84.38
2023-02-14T15:12:20.521Z,84.38
2023-02-14T15:13:20.545Z,84.38
2023-02-14T15:14:20.504Z,84.38
2023-02-14T15:15:20.551Z,78.75
2023-02-14T15:16:25.508Z,78.75
2023-02-14T15:17:20.489Z,78.75
2023-02-14T15:18:20.470Z,78.75
2023-02-14T15:19:20.446Z,78.75
2023-02-14T15:20:20.525Z,78.75
2023-02-14T15:21:20.424Z,78.75
2023-02-14T15:22:20.413Z,73.12
2023-02-14T15:23:20.404Z,73.12
2023-02-14T15:24:20.401Z,73.12
2023-02-14T15:25:20.407Z,73.12
2023-02-14T15:26:20.366Z,73.12
2023-02-14T15:27:25.403Z,73.12
2023-02-14T15:28:20.346Z,73.12
2023-02-14T15:29:20.356Z,73.12
2023-02-14T15:30:20.551Z,67.50
2023-02-14T15:31:20.456Z,67.50
2023-02-14T15:32:20.299Z,67.50
2023-02-14T15:33:20.309Z,67.50
2023-02-14T15:34:20.315Z,67.50
2023-02-14T15:35:20.281Z,67.50
2023-02-14T15:36:20.286Z,61.88
2023-02-14T15:37:20.244Z,61.88
2023-02-14T15:38:25.252Z,61.88
2023-02-14T15:39:20.224Z,61.88
2023-02-14T15:40:20.252Z,61.88
2023-02-14T15:41:20.207Z,56.25
2023-02-14T15:42:20.220Z,56.25
2023-02-14T15:43:20.215Z,56.25
2023-02-14T15:44:20.175Z,50.62
2023-02-14T15:45:20.187Z,50.62
2023-02-14T15:46:20.239Z,50.62
2023-02-14T15:47:20.134Z,50.62
2023-02-14T15:48:20.132Z,50.62
2023-02-14T15:49:25.132Z,45.00
2023-02-14T15:50:20.120Z,45.00
2023-02-14T15:51:20.109Z,45.00
2023-02-14T15:52:20.078Z,45.00
2023-02-14T15:53:20.117Z,45.00
2023-02-14T15:54:20.052Z,45.00
2023-02-14T15:55:20.086Z,39.38
2023-02-14T15:56:20.041Z,39.38
2023-02-14T15:57:20.025Z,39.38
2023-02-14T15:58:20.007Z,39.38
2023-02-14T15:59:20.009Z,39.38
2023-02-14T16:00:25.051Z,33.75
2023-02-14T16:01:20.034Z,33.75
2023-02-14T16:02:19.972Z,33.75
2023-02-14T16:03:19.951Z,33.75
2023-02-14T16:04:19.934Z,33.75
2023-02-14T16:05:19.925Z,33.75
2023-02-14T16:06:19.919Z,28.12
2023-02-14T16:07:19.897Z,28.12
2023-02-14T16:08:19.884Z,28.12
2023-02-14T16:09:19.881Z,28.12
2023-02-14T16:10:19.859Z,28.12
2023-02-14T16:11:24.883Z,28.12
2023-02-14T16:12:19.847Z,22.50
2023-02-14T16:13:19.835Z,22.50
2023-02-14T16:14:19.812Z,22.50
2023-02-14T16:15:19.807Z,22.50
2023-02-14T16:16:19.827Z,22.50
2023-02-14T16:17:19.779Z,22.50
2023-02-14T16:18:19.777Z,22.50
2023-02-14T16:19:19.775Z,16.88
2023-02-14T16:20:19.772Z,16.88
2023-02-14T16:21:19.756Z,16.88
2023-02-14T16:22:24.795Z,16.88
2023-02-14T16:23:19.759Z,16.88
2023-02-14T16:24:19.753Z,16.88
2023-02-14T16:25:19.743Z,16.88
2023-02-14T16:26:19.749Z,16.88
2023-02-14T16:27:19.701Z,11.25
2023-02-14T16:28:19.704Z,11.25
2023-02-14T16:29:19.743Z,11.25
2023-02-14T16:30:19.703Z,11.25
2023-02-14T16:31:19.805Z,11.25
2023-02-14T16:32:19.760Z,11.25
2023-02-14T16:33:24.659Z,11.25
2023-02-14T16:34:19.594Z,5.62
2023-02-14T16:35:19.578Z,5.62
2023-02-14T16:36:19.575Z,5.62
2023-02-14T16:37:19.578Z,5.62
2023-02-14T16:38:19.538Z,5.62
2023-02-14T16:39:19.532Z,5.62
2023-02-14T16:40:19.518Z,5.62
2023-02-14T16:41:19.525Z,5.62
2023-02-14T16:42:19.505Z,5.62
2023-02-14T16:43:19.485Z,5.62
2023-02-14T16:44:24.500Z,0.00
2023-02-14T16:45:19.488Z,0.00
2023-02-14T16:46:19.516Z,0.00
2023-02-14T16:47:19.540Z,0.00
2023-02-14T16:48:19.451Z,0.00
2023-02-14T16:49:19.418Z,0.00
2023-02-14T16:50:19.402Z,0.00
2023-02-14T16:51:19.454Z,0.00
2023-02-14T16:52:20.272Z,0.00
2023-02-14T16:53:19.503Z,0.00
2023-02-14T16:54:19.410Z,0.00
2023-02-14T16:55:24.375Z,0.00
2023-02-14T16:56:19.339Z,0.00
2023-02-14T16:57:19.338Z,0.00
2023-02-14T16:58:19.312Z,0.00
2023-02-14T16:59:19.307Z,0.00
2023-02-14T17:00:19.293Z,0.00
2023-02-14T17:01:19.388Z,0.00
2023-02-14T17:02:19.366Z,0.00
2023-02-14T17:03:19.258Z,0.00
2023-02-14T17:04:19.265Z,0.00
2023-02-14T17:05:19.265Z,0.00
2023-02-14T17:06:24.256Z,0.00
2023-02-14T17:07:19.224Z,0.00
2023-02-14T17:08:19.202Z,0.00
2023-02-14T17:09:19.191Z,0.00
2023-02-14T17:10:19.200Z,0.00
2023-02-14T17:11:19.172Z,0.00
2023-02-14T17:12:19.170Z,0.00
2023-02-14T17:13:19.146Z,0.00
2023-02-14T17:14:19.147Z,0.00
2023-02-14T17:15:19.126Z,0.00
2023-02-14T17:16:19.187Z,0.00
2023-02-14T17:17:24.211Z,0.00
2023-02-14T17:18:19.086Z,0.00
2023-02-14T17:19:19.080Z,0.00
2023-02-14T17:20:19.096Z,0.00
2023-02-14T17:21:19.061Z,0.00
2023-02-14T17:22:19.063Z,0.00
2023-02-14T17:23:19.041Z,0.00
2023-02-14T17:24:19.028Z,0.00
2023-02-14T17:25:19.019Z,0.00
2023-02-14T17:26:19.002Z,0.00
2023-02-14T17:27:19.011Z,0.00
2023-02-14T17:28:23.996Z,0.00
2023-02-14T17:29:18.966Z,0.00
2023-02-14T17:30:19.071Z,0.00
2023-02-14T17:31:19.070Z,0.00
2023-02-14T17:32:18.968Z,0.00
2023-02-14T17:33:18.930Z,0.00
2023-02-14T17:34:18.914Z,0.00
2023-02-14T17:35:18.924Z,0.00
2023-02-14T17:36:18.909Z,0.00
2023-02-14T17:37:19.026Z,0.00
2023-02-14T17:38:18.872Z,0.00
2023-02-14T17:39:23.888Z,0.00
2023-02-14T17:40:18.851Z,0.00
2023-02-14T17:41:18.849Z,0.00
2023-02-14T17:42:18.855Z,0.00
2023-02-14T17:43:18.807Z,0.00
2023-02-14T17:44:18.800Z,0.00
2023-02-14T17:45:18.787Z,0.00
2023-02-14T17:46:18.976Z,0.00
2023-02-14T17:47:18.779Z,0.00